PWSweather.com
Personal Weather Stations
Station Observations
HELOTES
Helotes Park Terrace, Helotes, TX 78023

Helotes Park TerraceHelotes, TX 78023

Lat: 29.57, Lon: -98.68

Elevation: 1060

Station Type: Ambient Weather WS-1090

Latest ConditionsUpdated 11:01:31 AM CDT Sunday, Sep 21, 2014
Currently Today's Max Today's Min Today's Average
Temperature 80.1°F26.7°C 80.1°F26.7°C 73.3°F22.9°C 74.7°F23.7°C
Dew Point 74.2°F23.4°C 74.4°F23.6°C 69.8°F21.0°C 71.0°F21.7°C
Winds 6.5 mph NNE10.5 kmh NNE 8.9 mph NNE14.3 kmh NNE - 2.3 mph 3.7 kmh
Wind Gusts 11.4 mph18.3 kmh 12.5 mph20.1 kmh - -
Humidity 82% 91% 82% 88%
Pressure 30.00 in1015.9 mb 30.00 in1015.9 mb 29.92 in1013.2 mb -
Hour Temp Dew Point Humidity Winds Wind Gusts Pressure Precip Precip Rate Daily Precip Total
11:01 AM 80.1°F26.7°C 74.2°F23.4°C 82% 6.5 mph NNE10.5 kmh NNE 11.4 mph18.3 kmh 30.00 in1015.9 mb 0.00 in0.0 mm 0.00 in/hr0.0 mm/hr 0.00 in0.0 mm
10:56 AM 79.9°F26.6°C 74.4°F23.6°C 83% 4.4 mph N7.1 kmh N 11.4 mph18.3 kmh 30.00 in1015.9 mb 0.00 in0.0 mm 0.00 in/hr0.0 mm/hr 0.00 in0.0 mm
10:51 AM 79.6°F26.4°C 74.0°F23.3°C 83% 8.9 mph NNE14.3 kmh NNE 11.4 mph18.3 kmh 30.00 in1015.9 mb 0.00 in0.0 mm 0.00 in/hr0.0 mm/hr 0.00 in0.0 mm
10:46 AM 79.2°F26.2°C 74.0°F23.3°C 84% 5.2 mph NE8.4 kmh NE 10.5 mph16.9 kmh 30.00 in1015.9 mb 0.00 in0.0 mm 0.00 in/hr0.0 mm/hr 0.00 in0.0 mm
10:41 AM 78.8°F26.0°C 73.6°F23.1°C 84% 7.3 mph NNE11.7 kmh NNE 10.5 mph16.9 kmh 30.00 in1015.9 mb 0.00 in0.0 mm 0.00 in/hr0.0 mm/hr 0.00 in0.0 mm
10:36 AM 78.7°F25.9°C 73.8°F23.2°C 85% 5.6 mph NNE9.0 kmh NNE 8.7 mph14.0 kmh 30.00 in1015.9 mb 0.00 in0.0 mm 0.00 in/hr0.0 mm/hr 0.00 in0.0 mm
10:31 AM 78.3°F25.7°C 73.8°F23.2°C 86% 5.2 mph NNE8.4 kmh NNE 12.5 mph20.1 kmh 30.00 in1015.9 mb 0.00 in0.0 mm 0.00 in/hr0.0 mm/hr 0.00 in0.0 mm
10:26 AM 77.9°F25.5°C 73.8°F23.2°C 87% 5.4 mph 8.7 kmh 12.5 mph20.1 kmh 30.00 in1015.9 mb 0.00 in0.0 mm 0.00 in/hr0.0 mm/hr 0.00 in0.0 mm
10:21 AM 77.8°F25.4°C 73.6°F23.1°C 87% 6.3 mph N10.1 kmh N 12.5 mph20.1 kmh 29.99 in1015.6 mb 0.00 in0.0 mm 0.00 in/hr0.0 mm/hr 0.00 in0.0 mm
10:16 AM 77.4°F25.2°C 73.6°F23.1°C 88% 6.5 mph ENE10.5 kmh ENE 8.7 mph14.0 kmh 29.99 in1015.6 mb 0.00 in0.0 mm 0.00 in/hr0.0 mm/hr 0.00 in0.0 mm
10:11 AM 77.0°F25.0°C 73.6°F23.1°C 89% 6.8 mph NNE10.9 kmh NNE 6.9 mph11.1 kmh 29.99 in1015.6 mb 0.00 in0.0 mm 0.00 in/hr0.0 mm/hr 0.00 in0.0 mm
10:06 AM 76.7°F24.8°C 73.3°F22.9°C 89% 2.9 mph NNE4.7 kmh NNE 9.6 mph15.4 kmh 30.00 in1015.9 mb 0.00 in0.0 mm 0.00 in/hr0.0 mm/hr 0.00 in0.0 mm
10:01 AM 76.7°F24.8°C 73.3°F22.9°C 89% 7.2 mph N11.6 kmh N 9.6 mph15.4 kmh 30.00 in1015.9 mb 0.00 in0.0 mm 0.00 in/hr0.0 mm/hr 0.00 in0.0 mm
09:56 AM 76.3°F24.6°C 72.9°F22.7°C 89% 5.2 mph NE8.4 kmh NE 7.2 mph11.6 kmh 29.99 in1015.6 mb 0.00 in0.0 mm 0.00 in/hr0.0 mm/hr 0.00 in0.0 mm
09:51 AM 76.1°F24.5°C 72.7°F22.6°C 89% 6.4 mph NNE10.3 kmh NNE 7.6 mph12.2 kmh 29.99 in1015.6 mb 0.00 in0.0 mm 0.00 in/hr0.0 mm/hr 0.00 in0.0 mm
09:46 AM 76.0°F24.4°C 72.5°F22.5°C 89% 5.4 mph N8.7 kmh N 7.6 mph12.2 kmh 29.99 in1015.6 mb 0.00 in0.0 mm 0.00 in/hr0.0 mm/hr 0.00 in0.0 mm
09:41 AM 76.0°F24.4°C 72.5°F22.5°C 89% 6.1 mph 9.8 kmh 7.6 mph12.2 kmh 29.99 in1015.6 mb 0.00 in0.0 mm 0.00 in/hr0.0 mm/hr 0.00 in0.0 mm
09:36 AM 75.8°F24.3°C 72.4°F22.4°C 89% 3.9 mph N6.3 kmh N 7.2 mph11.6 kmh 29.99 in1015.6 mb 0.00 in0.0 mm 0.00 in/hr0.0 mm/hr 0.00 in0.0 mm
09:31 AM 75.8°F24.3°C 72.4°F22.4°C 89% 3.3 mph N5.3 kmh N 7.2 mph11.6 kmh 29.99 in1015.6 mb 0.00 in0.0 mm 0.00 in/hr0.0 mm/hr 0.00 in0.0 mm
09:26 AM 75.6°F24.2°C 72.2°F22.3°C 89% 5.5 mph NNE8.9 kmh NNE 6.5 mph10.5 kmh 29.99 in1015.6 mb 0.00 in0.0 mm 0.00 in/hr0.0 mm/hr 0.00 in0.0 mm
09:21 AM 75.4°F24.1°C 72.0°F22.2°C 89% 3.6 mph NNE5.8 kmh NNE 6.5 mph10.5 kmh 29.99 in1015.6 mb 0.00 in0.0 mm 0.00 in/hr0.0 mm/hr 0.00 in0.0 mm
09:16 AM 75.2°F24.0°C 72.2°F22.3°C 90% 2.6 mph NNE4.2 kmh NNE 6.5 mph10.5 kmh 29.99 in1015.6 mb 0.00 in0.0 mm 0.00 in/hr0.0 mm/hr 0.00 in0.0 mm
09:11 AM 75.2°F24.0°C 72.2°F22.3°C 90% 3.9 mph NNE6.3 kmh NNE 7.8 mph12.6 kmh 29.99 in1015.6 mb 0.00 in0.0 mm 0.00 in/hr0.0 mm/hr 0.00 in0.0 mm
09:06 AM 75.1°F23.9°C 72.0°F22.2°C 90% 4.2 mph NNE6.8 kmh NNE 7.8 mph12.6 kmh 29.99 in1015.6 mb 0.00 in0.0 mm 0.00 in/hr0.0 mm/hr 0.00 in0.0 mm
09:01 AM 74.9°F23.8°C 71.8°F22.1°C 90% 2.9 mph NNE4.7 kmh NNE 6.3 mph10.1 kmh 29.99 in1015.6 mb 0.00 in0.0 mm 0.00 in/hr0.0 mm/hr 0.00 in0.0 mm
08:56 AM 74.9°F23.8°C 71.8°F22.1°C 90% 5.4 mph 8.7 kmh 6.7 mph10.8 kmh 29.99 in1015.6 mb 0.00 in0.0 mm 0.00 in/hr0.0 mm/hr 0.00 in0.0 mm
08:51 AM 74.7°F23.7°C 71.6°F22.0°C 90% 5.0 mph NNE8.0 kmh NNE 6.7 mph10.8 kmh 29.99 in1015.6 mb 0.00 in0.0 mm 0.00 in/hr0.0 mm/hr 0.00 in0.0 mm
08:46 AM 74.5°F23.6°C 71.7°F22.1°C 91% 2.5 mph 4.0 kmh 6.9 mph11.1 kmh 29.99 in1015.6 mb 0.00 in0.0 mm 0.00 in/hr0.0 mm/hr 0.00 in0.0 mm
08:41 AM 74.3°F23.5°C 71.6°F22.0°C 91% 3.1 mph N5.0 kmh N 6.9 mph11.1 kmh 29.99 in1015.6 mb 0.00 in0.0 mm 0.00 in/hr0.0 mm/hr 0.00 in0.0 mm
08:36 AM 74.2°F23.4°C 71.4°F21.9°C 91% 5.9 mph N9.5 kmh N 6.9 mph11.1 kmh 29.99 in1015.6 mb 0.00 in0.0 mm 0.00 in/hr0.0 mm/hr 0.00 in0.0 mm
08:31 AM 74.0°F23.3°C 71.2°F21.8°C 91% 3.0 mph NNE4.8 kmh NNE 6.0 mph9.7 kmh 29.99 in1015.6 mb 0.00 in0.0 mm 0.00 in/hr0.0 mm/hr 0.00 in0.0 mm
08:26 AM 74.0°F23.3°C 71.2°F21.8°C 91% 2.8 mph NNE4.5 kmh NNE 6.0 mph9.7 kmh 29.98 in1015.2 mb 0.00 in0.0 mm 0.00 in/hr0.0 mm/hr 0.00 in0.0 mm
08:21 AM 73.8°F23.2°C 71.0°F21.7°C 91% 3.4 mph N5.5 kmh N 4.5 mph7.2 kmh 29.98 in1015.2 mb 0.00 in0.0 mm 0.00 in/hr0.0 mm/hr 0.00 in0.0 mm
08:16 AM 73.6°F23.1°C 70.8°F21.6°C 91% 3.3 mph N5.3 kmh N 4.3 mph6.9 kmh 29.98 in1015.2 mb 0.00 in0.0 mm 0.00 in/hr0.0 mm/hr 0.00 in0.0 mm
08:11 AM 73.6°F23.1°C 70.8°F21.6°C 91% 3.7 mph 6.0 kmh 4.3 mph6.9 kmh 29.98 in1015.2 mb 0.00 in0.0 mm 0.00 in/hr0.0 mm/hr 0.00 in0.0 mm
08:06 AM 73.4°F23.0°C 70.7°F21.5°C 91% 3.4 mph N5.5 kmh N 4.9 mph7.9 kmh 29.97 in1014.9 mb 0.00 in0.0 mm 0.00 in/hr0.0 mm/hr 0.00 in0.0 mm
08:01 AM 73.4°F23.0°C 70.7°F21.5°C 91% 3.6 mph NNE5.8 kmh NNE 5.1 mph8.2 kmh 29.97 in1014.9 mb 0.00 in0.0 mm 0.00 in/hr0.0 mm/hr 0.00 in0.0 mm
07:56 AM 73.3°F22.9°C 70.5°F21.4°C 91% 2.7 mph NE4.3 kmh NE 5.1 mph8.2 kmh 29.97 in1014.9 mb 0.00 in0.0 mm 0.00 in/hr0.0 mm/hr 0.00 in0.0 mm
07:51 AM 73.3°F22.9°C 70.2°F21.2°C 90% 2.9 mph NNE4.7 kmh NNE 4.5 mph7.2 kmh 29.97 in1014.9 mb 0.00 in0.0 mm 0.00 in/hr0.0 mm/hr 0.00 in0.0 mm
07:46 AM 73.3°F22.9°C 70.2°F21.2°C 90% 2.0 mph NNE3.2 kmh NNE 4.7 mph7.6 kmh 29.97 in1014.9 mb 0.00 in0.0 mm 0.00 in/hr0.0 mm/hr 0.00 in0.0 mm
07:41 AM 73.4°F23.0°C 70.4°F21.3°C 90% 3.2 mph N5.1 kmh N 4.7 mph7.6 kmh 29.96 in1014.6 mb 0.00 in0.0 mm 0.00 in/hr0.0 mm/hr 0.00 in0.0 mm
07:36 AM 73.4°F23.0°C 70.4°F21.3°C 90% 2.6 mph NNW4.2 kmh NNW 5.1 mph8.2 kmh 29.97 in1014.9 mb 0.00 in0.0 mm 0.00 in/hr0.0 mm/hr 0.00 in0.0 mm
07:31 AM 73.4°F23.0°C 70.4°F21.3°C 90% 2.5 mph N4.0 kmh N 5.1 mph8.2 kmh 29.96 in1014.6 mb 0.00 in0.0 mm 0.00 in/hr0.0 mm/hr 0.00 in0.0 mm
07:26 AM 73.4°F23.0°C 70.4°F21.3°C 90% 2.8 mph N4.5 kmh N 5.4 mph8.7 kmh 29.96 in1014.6 mb 0.00 in0.0 mm 0.00 in/hr0.0 mm/hr 0.00 in0.0 mm
07:21 AM 73.4°F23.0°C 70.4°F21.3°C 90% 2.1 mph N3.4 kmh N 5.4 mph8.7 kmh 29.96 in1014.6 mb 0.00 in0.0 mm 0.00 in/hr0.0 mm/hr 0.00 in0.0 mm
07:16 AM 73.6°F23.1°C 70.6°F21.4°C 90% 2.8 mph 4.5 kmh 4.3 mph6.9 kmh 29.96 in1014.6 mb 0.00 in0.0 mm 0.00 in/hr0.0 mm/hr 0.00 in0.0 mm
07:11 AM 73.6°F23.1°C 70.6°F21.4°C 90% 2.7 mph N4.3 kmh N 3.1 mph5.0 kmh 29.96 in1014.6 mb 0.00 in0.0 mm 0.00 in/hr0.0 mm/hr 0.00 in0.0 mm
07:06 AM 73.6°F23.1°C 70.6°F21.4°C 90% 2.3 mph 3.7 kmh 2.9 mph4.7 kmh 29.95 in1014.2 mb 0.00 in0.0 mm 0.00 in/hr0.0 mm/hr 0.00 in0.0 mm
07:01 AM 73.8°F23.2°C 70.7°F21.5°C 90% 2.3 mph 3.7 kmh 2.9 mph4.7 kmh 29.95 in1014.2 mb 0.00 in0.0 mm 0.00 in/hr0.0 mm/hr 0.00 in0.0 mm
06:56 AM 73.8°F23.2°C 70.7°F21.5°C 90% 1.9 mph 3.1 kmh 2.9 mph4.7 kmh 29.95 in1014.2 mb 0.00 in0.0 mm 0.00 in/hr0.0 mm/hr 0.00 in0.0 mm
06:51 AM 73.8°F23.2°C 70.7°F21.5°C 90% 1.4 mph 2.3 kmh 2.9 mph4.7 kmh 29.95 in1014.2 mb 0.00 in0.0 mm 0.00 in/hr0.0 mm/hr 0.00 in0.0 mm
06:46 AM 73.8°F23.2°C 70.7°F21.5°C 90% 2.2 mph 3.5 kmh 3.8 mph6.1 kmh 29.95 in1014.2 mb 0.00 in0.0 mm 0.00 in/hr0.0 mm/hr 0.00 in0.0 mm
06:41 AM 73.8°F23.2°C 70.7°F21.5°C 90% 1.4 mph 2.3 kmh 4.7 mph7.6 kmh 29.95 in1014.2 mb 0.00 in0.0 mm 0.00 in/hr0.0 mm/hr 0.00 in0.0 mm
06:36 AM 73.8°F23.2°C 70.7°F21.5°C 90% 3.5 mph NNE5.6 kmh NNE 4.7 mph7.6 kmh 29.94 in1013.9 mb 0.00 in0.0 mm 0.00 in/hr0.0 mm/hr 0.00 in0.0 mm
06:31 AM 73.8°F23.2°C 70.7°F21.5°C 90% 1.6 mph N2.6 kmh N 3.4 mph5.5 kmh 29.94 in1013.9 mb 0.00 in0.0 mm 0.00 in/hr0.0 mm/hr 0.00 in0.0 mm
06:26 AM 73.8°F23.2°C 70.7°F21.5°C 90% 2.2 mph N3.5 kmh N 3.4 mph5.5 kmh 29.94 in1013.9 mb 0.00 in0.0 mm 0.00 in/hr0.0 mm/hr 0.00 in0.0 mm
06:21 AM 73.8°F23.2°C 70.7°F21.5°C 90% 2.0 mph NNE3.2 kmh NNE 3.1 mph5.0 kmh 29.94 in1013.9 mb 0.00 in0.0 mm 0.00 in/hr0.0 mm/hr 0.00 in0.0 mm
06:16 AM 74.0°F23.3°C 70.9°F21.6°C 90% 1.7 mph 2.7 kmh 3.4 mph5.5 kmh 29.94 in1013.9 mb 0.00 in0.0 mm 0.00 in/hr0.0 mm/hr 0.00 in0.0 mm
06:11 AM 73.8°F23.2°C 70.7°F21.5°C 90% 2.6 mph N4.2 kmh N 4.0 mph6.4 kmh 29.94 in1013.9 mb 0.00 in0.0 mm 0.00 in/hr0.0 mm/hr 0.00 in0.0 mm
06:06 AM 74.0°F23.3°C 70.9°F21.6°C 90% 1.9 mph 3.1 kmh 4.0 mph6.4 kmh 29.94 in1013.9 mb 0.00 in0.0 mm 0.00 in/hr0.0 mm/hr 0.00 in0.0 mm
06:01 AM 74.0°F23.3°C 70.9°F21.6°C 90% 2.0 mph 3.2 kmh 3.8 mph6.1 kmh 29.94 in1013.9 mb 0.00 in0.0 mm 0.00 in/hr0.0 mm/hr 0.00 in0.0 mm
05:56 AM 74.0°F23.3°C 70.9°F21.6°C 90% 1.6 mph 2.6 kmh 3.1 mph5.0 kmh 29.93 in1013.5 mb 0.00 in0.0 mm 0.00 in/hr0.0 mm/hr 0.00 in0.0 mm
05:51 AM 74.0°F23.3°C 70.9°F21.6°C 90% 2.1 mph 3.4 kmh 3.8 mph6.1 kmh 29.94 in1013.9 mb 0.00 in0.0 mm 0.00 in/hr0.0 mm/hr 0.00 in0.0 mm
05:46 AM 74.0°F23.3°C 70.9°F21.6°C 90% 2.6 mph 4.2 kmh 3.8 mph6.1 kmh 29.93 in1013.5 mb 0.00 in0.0 mm 0.00 in/hr0.0 mm/hr 0.00 in0.0 mm
05:41 AM 74.0°F23.3°C 70.9°F21.6°C 90% 2.6 mph 4.2 kmh 3.1 mph5.0 kmh 29.93 in1013.5 mb 0.00 in0.0 mm 0.00 in/hr0.0 mm/hr 0.00 in0.0 mm
05:36 AM 74.0°F23.3°C 70.9°F21.6°C 90% 1.1 mph 1.8 kmh 3.1 mph5.0 kmh 29.93 in1013.5 mb 0.00 in0.0 mm 0.00 in/hr0.0 mm/hr 0.00 in0.0 mm
05:31 AM 74.0°F23.3°C 70.9°F21.6°C 90% 2.1 mph N3.4 kmh N 3.6 mph5.8 kmh 29.93 in1013.5 mb 0.00 in0.0 mm 0.00 in/hr0.0 mm/hr 0.00 in0.0 mm
05:26 AM 74.0°F23.3°C 70.9°F21.6°C 90% 2.9 mph 4.7 kmh 3.6 mph5.8 kmh 29.93 in1013.5 mb 0.00 in0.0 mm 0.00 in/hr0.0 mm/hr 0.00 in0.0 mm
05:21 AM 73.8°F23.2°C 70.7°F21.5°C 90% 1.6 mph N2.6 kmh N 2.7 mph4.3 kmh 29.93 in1013.5 mb 0.00 in0.0 mm 0.00 in/hr0.0 mm/hr 0.00 in0.0 mm
05:16 AM 73.8°F23.2°C 70.7°F21.5°C 90% 1.1 mph N1.8 kmh N 2.0 mph3.2 kmh 29.93 in1013.5 mb 0.00 in0.0 mm 0.00 in/hr0.0 mm/hr 0.00 in0.0 mm
05:11 AM 73.8°F23.2°C 70.7°F21.5°C 90% 0.8 mph NNE1.3 kmh NNE 2.2 mph3.5 kmh 29.92 in1013.2 mb 0.00 in0.0 mm 0.00 in/hr0.0 mm/hr 0.00 in0.0 mm
05:06 AM 73.8°F23.2°C 70.7°F21.5°C 90% 1.5 mph N2.4 kmh N 3.4 mph5.5 kmh 29.92 in1013.2 mb 0.00 in0.0 mm 0.00 in/hr0.0 mm/hr 0.00 in0.0 mm
05:01 AM 73.8°F23.2°C 70.7°F21.5°C 90% 1.6 mph NNE2.6 kmh NNE 4.5 mph7.2 kmh 29.92 in1013.2 mb 0.00 in0.0 mm 0.00 in/hr0.0 mm/hr 0.00 in0.0 mm
04:56 AM 73.8°F23.2°C 70.7°F21.5°C 90% 2.2 mph 3.5 kmh 4.5 mph7.2 kmh 29.93 in1013.5 mb 0.00 in0.0 mm 0.00 in/hr0.0 mm/hr 0.00 in0.0 mm
04:51 AM 73.6°F23.1°C 70.6°F21.4°C 90% 2.3 mph 3.7 kmh 3.8 mph6.1 kmh 29.93 in1013.5 mb 0.00 in0.0 mm 0.00 in/hr0.0 mm/hr 0.00 in0.0 mm
04:46 AM 73.6°F23.1°C 70.6°F21.4°C 90% 1.8 mph N2.9 kmh N 3.4 mph5.5 kmh 29.93 in1013.5 mb 0.00 in0.0 mm 0.00 in/hr0.0 mm/hr 0.00 in0.0 mm
04:41 AM 73.6°F23.1°C 70.6°F21.4°C 90% 1.7 mph NNE2.7 kmh NNE 3.4 mph5.5 kmh 29.93 in1013.5 mb 0.00 in0.0 mm 0.00 in/hr0.0 mm/hr 0.00 in0.0 mm
04:36 AM 73.4°F23.0°C 70.4°F21.3°C 90% 1.5 mph N2.4 kmh N 3.4 mph5.5 kmh 29.93 in1013.5 mb 0.00 in0.0 mm 0.00 in/hr0.0 mm/hr 0.00 in0.0 mm
04:31 AM 73.4°F23.0°C 70.4°F21.3°C 90% 1.7 mph 2.7 kmh 2.2 mph3.5 kmh 29.93 in1013.5 mb 0.00 in0.0 mm 0.00 in/hr0.0 mm/hr 0.00 in0.0 mm
04:26 AM 73.3°F22.9°C 69.8°F21.0°C 89% 0.9 mph 1.4 kmh 2.5 mph4.0 kmh 29.93 in1013.5 mb 0.00 in0.0 mm 0.00 in/hr0.0 mm/hr 0.00 in0.0 mm
04:21 AM 73.3°F22.9°C 69.8°F21.0°C 89% 1.4 mph 2.3 kmh 2.5 mph4.0 kmh 29.93 in1013.5 mb 0.00 in0.0 mm 0.00 in/hr0.0 mm/hr 0.00 in0.0 mm
04:16 AM 73.3°F22.9°C 69.8°F21.0°C 89% 1.5 mph 2.4 kmh 2.5 mph4.0 kmh 29.93 in1013.5 mb 0.00 in0.0 mm 0.00 in/hr0.0 mm/hr 0.00 in0.0 mm
04:11 AM 73.3°F22.9°C 69.8°F21.0°C 89% 1.1 mph N1.8 kmh N 1.8 mph2.9 kmh 29.93 in1013.5 mb 0.00 in0.0 mm 0.00 in/hr0.0 mm/hr 0.00 in0.0 mm
04:06 AM 73.3°F22.9°C 69.8°F21.0°C 89% 0.7 mph 1.1 kmh 1.1 mph1.8 kmh 29.92 in1013.2 mb 0.00 in0.0 mm 0.00 in/hr0.0 mm/hr 0.00 in0.0 mm
04:01 AM 73.3°F22.9°C 69.8°F21.0°C 89% 0.7 mph 1.1 kmh 1.1 mph1.8 kmh 29.92 in1013.2 mb 0.00 in0.0 mm 0.00 in/hr0.0 mm/hr 0.00 in0.0 mm
03:56 AM 73.3°F22.9°C 69.8°F21.0°C 89% 0.4 mph 0.6 kmh 1.8 mph2.9 kmh 29.93 in1013.5 mb 0.00 in0.0 mm 0.00 in/hr0.0 mm/hr 0.00 in0.0 mm
03:51 AM 73.3°F22.9°C 69.8°F21.0°C 89% 1.2 mph 1.9 kmh 1.8 mph2.9 kmh 29.92 in1013.2 mb 0.00 in0.0 mm 0.00 in/hr0.0 mm/hr 0.00 in0.0 mm
03:46 AM 73.4°F23.0°C 70.0°F21.1°C 89% 1.1 mph N1.8 kmh N 1.6 mph2.6 kmh 29.92 in1013.2 mb 0.00 in0.0 mm 0.00 in/hr0.0 mm/hr 0.00 in0.0 mm
03:41 AM 73.4°F23.0°C 70.0°F21.1°C 89% 1.0 mph 1.6 kmh 1.1 mph1.8 kmh 29.92 in1013.2 mb 0.00 in0.0 mm 0.00 in/hr0.0 mm/hr 0.00 in0.0 mm
03:36 AM 73.6°F23.1°C 69.8°F21.0°C 88% 0.9 mph 1.4 kmh 0.9 mph1.4 kmh 29.92 in1013.2 mb 0.00 in0.0 mm 0.00 in/hr0.0 mm/hr 0.00 in0.0 mm
03:31 AM 73.6°F23.1°C 69.8°F21.0°C 88% 0.4 mph 0.6 kmh 1.1 mph1.8 kmh 29.92 in1013.2 mb 0.00 in0.0 mm 0.00 in/hr0.0 mm/hr 0.00 in0.0 mm
03:26 AM 73.6°F23.1°C 69.8°F21.0°C 88% 0.9 mph 1.4 kmh 1.1 mph1.8 kmh 29.92 in1013.2 mb 0.00 in0.0 mm 0.00 in/hr0.0 mm/hr 0.00 in0.0 mm
03:21 AM 73.6°F23.1°C 69.8°F21.0°C 88% 0.5 mph 0.8 kmh 0.9 mph1.4 kmh 29.92 in1013.2 mb 0.00 in0.0 mm 0.00 in/hr0.0 mm/hr 0.00 in0.0 mm
03:16 AM 73.8°F23.2°C 70.0°F21.1°C 88% 0.2 mph 0.3 kmh 1.1 mph1.8 kmh 29.92 in1013.2 mb 0.00 in0.0 mm 0.00 in/hr0.0 mm/hr 0.00 in0.0 mm
03:11 AM 73.8°F23.2°C 70.0°F21.1°C 88% 0.3 mph 0.5 kmh 1.3 mph2.1 kmh 29.92 in1013.2 mb 0.00 in0.0 mm 0.00 in/hr0.0 mm/hr 0.00 in0.0 mm
03:06 AM 73.8°F23.2°C 70.0°F21.1°C 88% 1.1 mph 1.8 kmh 1.3 mph2.1 kmh 29.92 in1013.2 mb 0.00 in0.0 mm 0.00 in/hr0.0 mm/hr 0.00 in0.0 mm
03:01 AM 73.8°F23.2°C 70.0°F21.1°C 88% 0.4 mph 0.6 kmh 0.4 mph0.6 kmh 29.92 in1013.2 mb 0.00 in0.0 mm 0.00 in/hr0.0 mm/hr 0.00 in0.0 mm
02:56 AM 74.0°F23.3°C 69.9°F21.1°C 87% 0.2 mph 0.3 kmh 0.4 mph0.6 kmh 29.92 in1013.2 mb 0.00 in0.0 mm 0.00 in/hr0.0 mm/hr 0.00 in0.0 mm
02:51 AM 74.0°F23.3°C 69.9°F21.1°C 87% 0.2 mph 0.3 kmh 0.9 mph1.4 kmh 29.92 in1013.2 mb 0.00 in0.0 mm 0.00 in/hr0.0 mm/hr 0.00 in0.0 mm
02:46 AM 74.2°F23.4°C 70.1°F21.2°C 87% 0.4 mph 0.6 kmh 0.9 mph1.4 kmh 29.92 in1013.2 mb 0.00 in0.0 mm 0.00 in/hr0.0 mm/hr 0.00 in0.0 mm
02:41 AM 74.2°F23.4°C 70.1°F21.2°C 87% 0.9 mph 1.4 kmh 0.9 mph1.4 kmh 29.92 in1013.2 mb 0.00 in0.0 mm 0.00 in/hr0.0 mm/hr 0.00 in0.0 mm
02:36 AM 74.2°F23.4°C 70.1°F21.2°C 87% 0.6 mph NNE1.0 kmh NNE 1.8 mph2.9 kmh 29.92 in1013.2 mb 0.00 in0.0 mm 0.00 in/hr0.0 mm/hr 0.00 in0.0 mm
02:31 AM 74.2°F23.4°C 70.1°F21.2°C 87% 0.2 mph NNE0.3 kmh NNE 1.8 mph2.9 kmh 29.92 in1013.2 mb 0.00 in0.0 mm 0.00 in/hr0.0 mm/hr 0.00 in0.0 mm
02:26 AM 74.3°F23.5°C 70.3°F21.3°C 87% Calm Calm 0.7 mph1.1 kmh 29.92 in1013.2 mb 0.00 in0.0 mm 0.00 in/hr0.0 mm/hr 0.00 in0.0 mm
02:21 AM 74.3°F23.5°C 70.3°F21.3°C 87% Calm Calm 0.9 mph1.4 kmh 29.92 in1013.2 mb 0.00 in0.0 mm 0.00 in/hr0.0 mm/hr 0.00 in0.0 mm
02:16 AM 74.3°F23.5°C 70.3°F21.3°C 87% 0.6 mph NNE1.0 kmh NNE 0.9 mph1.4 kmh 29.92 in1013.2 mb 0.00 in0.0 mm 0.00 in/hr0.0 mm/hr 0.00 in0.0 mm
02:11 AM 74.5°F23.6°C 70.5°F21.4°C 87% 0.2 mph NNE0.3 kmh NNE 0.2 mph0.3 kmh 29.92 in1013.2 mb 0.00 in0.0 mm 0.00 in/hr0.0 mm/hr 0.00 in0.0 mm
02:06 AM 74.5°F23.6°C 70.5°F21.4°C 87% Calm Calm 0.2 mph0.3 kmh 29.92 in1013.2 mb 0.00 in0.0 mm 0.00 in/hr0.0 mm/hr 0.00 in0.0 mm
02:01 AM 74.5°F23.6°C 70.1°F21.2°C 86% 0.2 mph ENE0.3 kmh ENE 2.5 mph4.0 kmh 29.92 in1013.2 mb 0.00 in0.0 mm 0.00 in/hr0.0 mm/hr 0.00 in0.0 mm
01:56 AM 74.7°F23.7°C 70.3°F21.3°C 86% 0.8 mph NE1.3 kmh NE 2.5 mph4.0 kmh 29.92 in1013.2 mb 0.00 in0.0 mm 0.00 in/hr0.0 mm/hr 0.00 in0.0 mm
01:51 AM 74.7°F23.7°C 70.3°F21.3°C 86% 1.8 mph NNE2.9 kmh NNE 2.7 mph4.3 kmh 29.92 in1013.2 mb 0.00 in0.0 mm 0.00 in/hr0.0 mm/hr 0.00 in0.0 mm
01:46 AM 74.7°F23.7°C 70.3°F21.3°C 86% 1.0 mph NNE1.6 kmh NNE 2.7 mph4.3 kmh 29.92 in1013.2 mb 0.00 in0.0 mm 0.00 in/hr0.0 mm/hr 0.00 in0.0 mm
01:41 AM 74.9°F23.8°C 70.5°F21.4°C 86% 0.7 mph NE1.1 kmh NE 0.7 mph1.1 kmh 29.92 in1013.2 mb 0.00 in0.0 mm 0.00 in/hr0.0 mm/hr 0.00 in0.0 mm
01:36 AM 74.9°F23.8°C 70.5°F21.4°C 86% 0.4 mph NE0.6 kmh NE 0.4 mph0.6 kmh 29.92 in1013.2 mb 0.00 in0.0 mm 0.00 in/hr0.0 mm/hr 0.00 in0.0 mm
01:31 AM 74.9°F23.8°C 70.5°F21.4°C 86% 0.2 mph NE0.3 kmh NE 0.7 mph1.1 kmh 29.92 in1013.2 mb 0.00 in0.0 mm 0.00 in/hr0.0 mm/hr 0.00 in0.0 mm
01:26 AM 74.9°F23.8°C 70.1°F21.2°C 85% Calm Calm 0.7 mph1.1 kmh 29.92 in1013.2 mb 0.00 in0.0 mm 0.00 in/hr0.0 mm/hr 0.00 in0.0 mm
01:20 AM 74.9°F23.8°C 70.1°F21.2°C 85% Calm Calm 0.4 mph0.6 kmh 29.92 in1013.2 mb 0.00 in0.0 mm 0.00 in/hr0.0 mm/hr 0.00 in0.0 mm
01:16 AM 75.1°F23.9°C 70.3°F21.3°C 85% 0.2 mph NE0.3 kmh NE 0.4 mph0.6 kmh 29.92 in1013.2 mb 0.00 in0.0 mm 0.00 in/hr0.0 mm/hr 0.00 in0.0 mm
01:11 AM 75.1°F23.9°C 70.3°F21.3°C 85% 0.2 mph NE0.3 kmh NE 0.4 mph0.6 kmh 29.92 in1013.2 mb 0.00 in0.0 mm 0.00 in/hr0.0 mm/hr 0.00 in0.0 mm
01:06 AM 75.2°F24.0°C 70.5°F21.4°C 85% Calm Calm 1.1 mph1.8 kmh 29.92 in1013.2 mb 0.00 in0.0 mm 0.00 in/hr0.0 mm/hr 0.00 in0.0 mm
01:00 AM 75.2°F24.0°C 70.5°F21.4°C 85% 0.8 mph NE1.3 kmh NE 1.8 mph2.9 kmh 29.92 in1013.2 mb 0.00 in0.0 mm 0.00 in/hr0.0 mm/hr 0.00 in0.0 mm
12:56 AM 75.2°F24.0°C 70.5°F21.4°C 85% 0.7 mph NE1.1 kmh NE 1.8 mph2.9 kmh 29.92 in1013.2 mb 0.00 in0.0 mm 0.00 in/hr0.0 mm/hr 0.00 in0.0 mm
12:50 AM 75.2°F24.0°C 70.5°F21.4°C 85% 1.4 mph ENE2.3 kmh ENE 1.8 mph2.9 kmh 29.92 in1013.2 mb 0.00 in0.0 mm 0.00 in/hr0.0 mm/hr 0.00 in0.0 mm
12:45 AM 75.4°F24.1°C 70.7°F21.5°C 85% 0.8 mph ENE1.3 kmh ENE 4.0 mph6.4 kmh 29.92 in1013.2 mb 0.00 in0.0 mm 0.00 in/hr0.0 mm/hr 0.00 in0.0 mm
12:41 AM 75.4°F24.1°C 70.7°F21.5°C 85% 0.4 mph NE0.6 kmh NE 4.0 mph6.4 kmh 29.92 in1013.2 mb 0.00 in0.0 mm 0.00 in/hr0.0 mm/hr 0.00 in0.0 mm
12:36 AM 75.6°F24.2°C 70.5°F21.4°C 84% 2.8 mph ENE4.5 kmh ENE 4.0 mph6.4 kmh 29.92 in1013.2 mb 0.00 in0.0 mm 0.00 in/hr0.0 mm/hr 0.00 in0.0 mm
12:30 AM 75.6°F24.2°C 70.5°F21.4°C 84% 1.8 mph ENE2.9 kmh ENE 3.6 mph5.8 kmh 29.92 in1013.2 mb 0.00 in0.0 mm 0.00 in/hr0.0 mm/hr 0.00 in0.0 mm
12:25 AM 75.6°F24.2°C 70.5°F21.4°C 84% 2.5 mph NE4.0 kmh NE 3.6 mph5.8 kmh 29.92 in1013.2 mb 0.00 in0.0 mm 0.00 in/hr0.0 mm/hr 0.00 in0.0 mm
12:20 AM 75.6°F24.2°C 70.5°F21.4°C 84% 1.9 mph NE3.1 kmh NE 4.7 mph7.6 kmh 29.92 in1013.2 mb 0.00 in0.0 mm 0.00 in/hr0.0 mm/hr 0.00 in0.0 mm
12:15 AM 75.8°F24.3°C 70.3°F21.3°C 83% 2.7 mph NNE4.3 kmh NNE 4.7 mph7.6 kmh 29.92 in1013.2 mb 0.00 in0.0 mm 0.00 in/hr0.0 mm/hr 0.00 in0.0 mm
12:11 AM 75.8°F24.3°C 70.3°F21.3°C 83% 1.6 mph NE2.6 kmh NE 2.9 mph4.7 kmh 29.92 in1013.2 mb 0.00 in0.0 mm 0.00 in/hr0.0 mm/hr 0.00 in0.0 mm
12:05 AM 76.0°F24.4°C 70.5°F21.4°C 83% 2.9 mph ENE4.7 kmh ENE 2.9 mph4.7 kmh 29.92 in1013.2 mb 0.00 in0.0 mm 0.00 in/hr0.0 mm/hr 0.00 in0.0 mm
12:00 AM 76.0°F24.4°C 70.5°F21.4°C 83% 1.7 mph NNE2.7 kmh NNE 2.2 mph3.5 kmh 29.92 in1013.2 mb 0.00 in0.0 mm 0.00 in/hr0.0 mm/hr 0.00 in0.0 mm